createdAt,value
2018-09-09T00:01:44.467Z,2.75
2018-09-09T00:04:12.700Z,2.55
2018-09-09T00:06:40.869Z,2.80
2018-09-09T00:09:09.120Z,2.35
2018-09-09T00:11:37.318Z,3.10
2018-09-09T00:14:05.552Z,2.50
2018-09-09T00:16:33.760Z,3.02
2018-09-09T00:19:01.965Z,2.87
2018-09-09T00:21:30.327Z,2.20
2018-09-09T00:23:58.516Z,2.62
2018-09-09T00:26:26.735Z,2.40
2018-09-09T00:28:54.983Z,2.62
2018-09-09T00:31:23.135Z,3.37
2018-09-09T00:33:51.248Z,2.40
2018-09-09T00:36:19.445Z,10.98
2018-09-09T00:38:47.995Z,9.53
2018-09-09T00:41:16.206Z,8.83
2018-09-09T00:43:44.328Z,3.00
2018-09-09T00:46:12.569Z,7.22
2018-09-09T00:48:40.721Z,5.00
2018-09-09T00:51:14.558Z,2.60
2018-09-09T00:53:45.972Z,2.25
2018-09-09T00:56:15.218Z,2.50
2018-09-09T00:58:43.575Z,2.60
2018-09-09T01:01:14.628Z,2.10
2018-09-09T01:03:43.207Z,2.10
2018-09-09T01:06:11.329Z,2.85
2018-09-09T01:08:39.494Z,6.00
2018-09-09T01:11:08.044Z,2.35
2018-09-09T01:13:36.161Z,3.00
2018-09-09T01:16:04.332Z,2.60
2018-09-09T01:18:32.513Z,2.20
2018-09-09T01:21:00.817Z,2.52
2018-09-09T01:23:29.011Z,2.58
2018-09-09T01:25:57.383Z,3.08
2018-09-09T01:28:26.282Z,3.00
2018-09-09T01:30:54.472Z,2.33
2018-09-09T01:33:22.610Z,2.22
2018-09-09T01:35:50.728Z,2.12
2018-09-09T01:38:18.915Z,2.33
2018-09-09T01:40:47.235Z,2.20
2018-09-09T01:43:16.451Z,2.50
2018-09-09T01:45:44.611Z,1.92
2018-09-09T01:48:12.806Z,2.65
2018-09-09T01:50:40.935Z,2.10
2018-09-09T01:53:11.094Z,2.55
2018-09-09T01:55:39.327Z,2.35
2018-09-09T01:58:07.599Z,1.50
2018-09-09T02:00:35.963Z,1.25
2018-09-09T02:03:04.250Z,1.10
2018-09-09T02:05:32.378Z,1.52
2018-09-09T02:08:00.541Z,1.10
2018-09-09T02:10:28.634Z,0.80
2018-09-09T02:12:56.778Z,0.80
2018-09-09T02:15:24.931Z,0.95
2018-09-09T02:17:53.084Z,1.20
2018-09-09T02:20:21.261Z,0.82
2018-09-09T02:22:49.431Z,0.40
2018-09-09T02:25:17.610Z,1.10
2018-09-09T02:27:45.739Z,0.93
2018-09-09T02:30:13.940Z,0.93
2018-09-09T02:32:42.069Z,0.33
2018-09-09T02:35:10.237Z,0.55
2018-09-09T02:37:38.359Z,0.60
2018-09-09T02:40:06.552Z,0.40
2018-09-09T02:42:34.704Z,0.40
2018-09-09T02:45:02.822Z,0.68
2018-09-09T02:47:30.950Z,0.30
2018-09-09T02:49:59.168Z,0.30
2018-09-09T02:52:27.259Z,0.40
2018-09-09T02:54:55.444Z,0.30
2018-09-09T02:57:23.575Z,0.40
2018-09-09T02:59:51.752Z,0.95
2018-09-09T03:02:19.930Z,0.30
2018-09-09T03:04:48.138Z,0.45
2018-09-09T03:07:16.336Z,0.42
2018-09-09T03:09:44.463Z,0.30
2018-09-09T03:12:12.554Z,0.30
2018-09-09T03:14:40.719Z,0.30
2018-09-09T03:17:08.870Z,0.30
2018-09-09T03:19:37.091Z,0.30
2018-09-09T03:22:05.271Z,0.30
2018-09-09T03:24:33.374Z,0.30
2018-09-09T03:27:01.542Z,1.25
2018-09-09T03:29:29.680Z,0.30
2018-09-09T03:31:57.860Z,0.30
2018-09-09T03:34:25.988Z,0.30
2018-09-09T03:36:54.128Z,0.30
2018-09-09T03:39:22.248Z,0.30
2018-09-09T03:41:50.348Z,0.30
2018-09-09T03:44:18.426Z,0.30
2018-09-09T03:46:46.543Z,0.30
2018-09-09T03:49:14.713Z,0.30
2018-09-09T03:51:42.887Z,0.30
2018-09-09T03:54:10.992Z,0.30
2018-09-09T03:56:39.094Z,0.30
2018-09-09T03:59:07.215Z,0.60
2018-09-09T04:01:35.467Z,0.30
2018-09-09T04:04:03.661Z,0.30
2018-09-09T04:06:31.771Z,0.30
2018-09-09T04:08:59.894Z,0.30
2018-09-09T04:11:28.011Z,0.30
2018-09-09T04:13:56.114Z,0.30
2018-09-09T04:16:24.257Z,0.30
2018-09-09T04:18:52.364Z,0.40
2018-09-09T04:21:20.521Z,0.30
2018-09-09T04:23:48.643Z,0.50
2018-09-09T04:26:16.746Z,0.30
2018-09-09T04:28:44.901Z,0.30
2018-09-09T04:31:12.999Z,0.30
2018-09-09T04:33:41.109Z,0.30
2018-09-09T04:36:09.231Z,1.15
2018-09-09T04:38:37.347Z,0.30
2018-09-09T04:41:05.446Z,0.30
2018-09-09T04:43:33.630Z,0.30
2018-09-09T04:46:01.765Z,0.50
2018-09-09T04:48:29.871Z,0.30
2018-09-09T04:50:58.120Z,0.30
2018-09-09T04:53:26.293Z,0.30
2018-09-09T04:55:54.445Z,0.30
2018-09-09T04:58:23.084Z,1.30
2018-09-09T05:00:51.252Z,0.30
2018-09-09T05:03:19.343Z,0.50
2018-09-09T05:05:47.504Z,0.30
2018-09-09T05:08:15.659Z,0.40
2018-09-09T05:10:43.841Z,0.30
2018-09-09T05:13:11.938Z,0.30
2018-09-09T05:15:40.072Z,0.30
2018-09-09T05:18:08.234Z,0.40
2018-09-09T05:20:36.411Z,0.30
2018-09-09T05:23:04.563Z,0.30
2018-09-09T05:25:32.751Z,0.30
2018-09-09T05:28:01.792Z,0.30
2018-09-09T05:30:30.281Z,0.30
2018-09-09T05:32:58.484Z,0.30
2018-09-09T05:35:26.802Z,0.40
2018-09-09T05:37:55.000Z,0.30
2018-09-09T05:40:23.250Z,0.40
2018-09-09T05:42:51.398Z,0.30
2018-09-09T05:45:19.564Z,0.30
2018-09-09T05:47:47.703Z,0.30
2018-09-09T05:50:15.842Z,0.30
2018-09-09T05:52:43.952Z,0.30
2018-09-09T05:55:12.080Z,0.30
2018-09-09T05:57:40.336Z,0.30
2018-09-09T06:00:08.443Z,0.30
2018-09-09T06:02:36.602Z,0.30
2018-09-09T06:05:04.857Z,0.30
2018-09-09T06:07:33.076Z,0.30
2018-09-09T06:10:01.208Z,0.28
2018-09-09T06:12:29.383Z,0.40
2018-09-09T06:14:57.880Z,0.30
2018-09-09T06:17:26.012Z,0.30
2018-09-09T06:19:53.536Z,0.30
2018-09-09T06:22:21.661Z,0.30
2018-09-09T06:24:49.853Z,0.30
2018-09-09T06:27:17.995Z,0.30
2018-09-09T06:29:46.236Z,0.30
2018-09-09T06:32:14.443Z,0.30
2018-09-09T06:34:42.564Z,0.30
2018-09-09T06:37:10.788Z,0.62
2018-09-09T06:39:38.910Z,0.30
2018-09-09T06:42:07.020Z,0.40
2018-09-09T06:44:35.533Z,0.30
2018-09-09T06:47:03.849Z,0.30
2018-09-09T06:49:32.119Z,0.30
2018-09-09T06:52:00.598Z,0.30
2018-09-09T06:54:28.876Z,0.45
2018-09-09T06:56:57.075Z,0.30
2018-09-09T06:59:25.266Z,0.30
2018-09-09T07:01:53.728Z,0.30
2018-09-09T07:04:21.885Z,0.30
2018-09-09T07:06:50.125Z,0.30
2018-09-09T07:09:18.336Z,0.30
2018-09-09T07:11:46.611Z,0.30
2018-09-09T07:14:14.684Z,0.30
2018-09-09T07:16:42.839Z,0.30
2018-09-09T07:19:11.273Z,0.30
2018-09-09T07:21:39.499Z,0.30
2018-09-09T07:24:07.762Z,0.30
2018-09-09T07:26:36.090Z,0.40
2018-09-09T07:29:04.276Z,0.30
2018-09-09T07:31:32.545Z,0.30
2018-09-09T07:34:01.051Z,0.30
2018-09-09T07:36:29.360Z,0.30
2018-09-09T07:38:57.592Z,0.30
2018-09-09T07:41:25.814Z,0.30
2018-09-09T07:43:54.154Z,0.30
2018-09-09T07:46:22.736Z,0.30
2018-09-09T07:48:50.922Z,0.30
2018-09-09T07:51:19.353Z,0.30
2018-09-09T07:53:47.629Z,0.30
2018-09-09T07:56:15.846Z,0.30
2018-09-09T07:58:44.100Z,0.30
2018-09-09T08:01:12.234Z,0.30
2018-09-09T08:03:40.434Z,0.30
2018-09-09T08:06:08.563Z,0.30
2018-09-09T08:08:36.727Z,0.30
2018-09-09T08:11:05.734Z,0.30
2018-09-09T08:13:33.883Z,0.30
2018-09-09T08:16:02.054Z,0.30
2018-09-09T08:18:30.404Z,0.30
2018-09-09T08:20:58.685Z,0.60
2018-09-09T08:23:27.113Z,0.30
2018-09-09T08:25:55.490Z,0.30
2018-09-09T08:28:24.239Z,0.30
2018-09-09T08:30:52.808Z,0.30
2018-09-09T08:33:21.100Z,0.30
2018-09-09T08:35:49.337Z,0.30
2018-09-09T08:38:17.565Z,0.30
2018-09-09T08:40:45.844Z,1.37
2018-09-09T08:43:14.124Z,0.30
2018-09-09T08:45:42.456Z,0.30
2018-09-09T08:48:10.728Z,0.30
2018-09-09T08:50:39.144Z,0.30
2018-09-09T08:53:07.361Z,0.57
2018-09-09T08:55:35.612Z,0.73
2018-09-09T08:58:04.061Z,0.70
2018-09-09T09:00:32.274Z,0.30
2018-09-09T09:03:00.537Z,0.70
2018-09-09T09:05:29.059Z,0.40
2018-09-09T09:07:57.701Z,0.30
2018-09-09T09:10:25.961Z,0.30
2018-09-09T09:12:58.998Z,0.30
2018-09-09T09:15:27.318Z,0.30
2018-09-09T09:17:55.613Z,0.30
2018-09-09T09:20:24.897Z,0.40
2018-09-09T09:22:53.285Z,0.30
2018-09-09T09:25:21.535Z,0.30
2018-09-09T09:27:49.809Z,0.30
2018-09-09T09:30:18.109Z,0.30
2018-09-09T09:32:47.108Z,0.80
2018-09-09T09:35:15.408Z,0.30
2018-09-09T09:37:44.389Z,0.30
2018-09-09T09:40:12.603Z,0.30
2018-09-09T09:42:40.900Z,0.30
2018-09-09T09:45:10.821Z,0.30
2018-09-09T09:47:40.135Z,0.40
2018-09-09T09:50:08.361Z,0.40
2018-09-09T09:52:36.603Z,0.30
2018-09-09T09:55:05.188Z,0.30
2018-09-09T09:57:33.436Z,0.30
2018-09-09T10:00:01.823Z,0.30
2018-09-09T10:02:30.179Z,0.30
2018-09-09T10:04:58.438Z,0.50
2018-09-09T10:07:26.776Z,0.30
2018-09-09T10:09:55.561Z,0.30
2018-09-09T10:12:23.761Z,0.30
2018-09-09T10:14:52.037Z,0.30
2018-09-09T10:17:20.334Z,0.30
2018-09-09T10:19:49.697Z,0.30
2018-09-09T10:22:18.332Z,0.30
2018-09-09T10:24:46.576Z,0.30
2018-09-09T10:27:14.976Z,0.47
2018-09-09T10:29:43.334Z,0.30
2018-09-09T10:32:11.589Z,0.30
2018-09-09T10:34:39.812Z,0.30
2018-09-09T10:37:08.121Z,0.30
2018-09-09T10:39:36.392Z,0.30
2018-09-09T10:42:04.615Z,0.50
2018-09-09T10:44:32.857Z,0.30
2018-09-09T10:47:01.124Z,0.40
2018-09-09T10:49:29.291Z,0.73
2018-09-09T10:51:57.523Z,0.30
2018-09-09T10:54:25.814Z,0.30
2018-09-09T10:56:53.973Z,0.87
2018-09-09T10:59:22.142Z,0.30
2018-09-09T11:01:50.409Z,0.30
2018-09-09T11:04:18.585Z,0.30
2018-09-09T11:06:46.897Z,0.30
2018-09-09T11:09:15.083Z,0.30
2018-09-09T11:11:43.300Z,0.30
2018-09-09T11:14:11.461Z,0.30
2018-09-09T11:16:39.687Z,0.30
2018-09-09T11:19:07.929Z,0.30
2018-09-09T11:21:36.079Z,0.30
2018-09-09T11:24:04.481Z,0.30
2018-09-09T11:26:32.729Z,0.30
2018-09-09T11:29:00.917Z,0.30
2018-09-09T11:31:29.105Z,0.30
2018-09-09T11:33:57.296Z,0.30
2018-09-09T11:36:25.533Z,0.30
2018-09-09T11:38:53.720Z,0.30
2018-09-09T11:41:21.950Z,0.30
2018-09-09T11:43:50.087Z,0.30
2018-09-09T11:46:18.326Z,0.40
2018-09-09T11:48:46.484Z,0.30
2018-09-09T11:51:14.698Z,0.30
2018-09-09T11:53:43.055Z,0.40
2018-09-09T11:56:11.320Z,0.40
2018-09-09T11:58:39.608Z,0.30
2018-09-09T12:01:07.899Z,0.40
2018-09-09T12:03:36.152Z,0.30
2018-09-09T12:06:04.388Z,0.30
2018-09-09T12:08:32.670Z,0.30
2018-09-09T12:11:00.883Z,0.30
2018-09-09T12:13:29.097Z,0.30
2018-09-09T12:15:57.312Z,0.30
2018-09-09T12:18:25.538Z,0.30
2018-09-09T12:20:53.867Z,0.30
2018-09-09T12:23:22.200Z,0.30
2018-09-09T12:25:57.314Z,0.30
2018-09-09T12:28:25.624Z,0.30
2018-09-09T12:30:53.917Z,0.33
2018-09-09T12:33:22.309Z,0.40
2018-09-09T12:35:50.748Z,0.30
2018-09-09T12:38:18.959Z,0.30
2018-09-09T12:40:47.204Z,0.30
2018-09-09T12:43:21.022Z,0.40
2018-09-09T12:45:55.044Z,0.30
2018-09-09T12:49:32.427Z,0.30
2018-09-09T12:52:00.673Z,0.30
2018-09-09T12:54:29.114Z,0.40
2018-09-09T12:56:57.340Z,0.30
2018-09-09T12:59:25.698Z,0.30
2018-09-09T13:01:53.877Z,0.30
2018-09-09T13:04:22.017Z,0.40
2018-09-09T13:06:50.248Z,0.40
2018-09-09T13:09:18.563Z,0.30
2018-09-09T13:11:46.757Z,0.30
2018-09-09T13:14:15.004Z,0.30
2018-09-09T13:16:43.191Z,0.30
2018-09-09T13:19:11.368Z,0.30
2018-09-09T13:21:39.582Z,0.30
2018-09-09T13:24:07.695Z,0.30
2018-09-09T13:26:35.851Z,0.50
2018-09-09T13:29:04.089Z,0.30
2018-09-09T13:31:32.341Z,0.30
2018-09-09T13:34:00.536Z,0.30
2018-09-09T13:36:28.723Z,0.30
2018-09-09T13:38:56.978Z,0.30
2018-09-09T13:41:25.141Z,0.30
2018-09-09T13:43:53.298Z,0.30
2018-09-09T13:46:21.695Z,0.30
2018-09-09T13:48:50.051Z,0.80
2018-09-09T13:51:18.308Z,0.60
2018-09-09T13:53:46.643Z,0.30
2018-09-09T13:56:14.829Z,0.30
2018-09-09T13:58:43.034Z,0.30
2018-09-09T14:01:11.375Z,0.30
2018-09-09T14:03:39.709Z,0.30
2018-09-09T14:06:07.937Z,0.57
2018-09-09T14:08:36.185Z,0.30
2018-09-09T14:11:04.419Z,0.40
2018-09-09T14:13:32.666Z,0.30
2018-09-09T14:16:00.921Z,0.30
2018-09-09T14:18:29.187Z,0.30
2018-09-09T14:20:57.465Z,0.30
2018-09-09T14:23:25.801Z,0.30
2018-09-09T14:25:53.935Z,0.30
2018-09-09T14:28:22.207Z,0.30
2018-09-09T14:30:50.346Z,0.30
2018-09-09T14:33:18.627Z,0.40
2018-09-09T14:35:46.796Z,0.50
2018-09-09T14:38:15.056Z,0.40
2018-09-09T14:40:43.412Z,0.30
2018-09-09T14:43:11.600Z,0.30
2018-09-09T14:45:39.768Z,0.30
2018-09-09T14:48:07.969Z,0.30
2018-09-09T14:50:36.132Z,0.30
2018-09-09T14:53:04.413Z,0.30
2018-09-09T14:55:32.657Z,0.30
2018-09-09T14:58:00.973Z,0.30
2018-09-09T15:00:29.194Z,0.30
2018-09-09T15:02:57.544Z,0.30
2018-09-09T15:05:25.827Z,0.30
2018-09-09T15:07:54.127Z,0.30
2018-09-09T15:10:22.389Z,0.30
2018-09-09T15:12:50.596Z,0.30
2018-09-09T15:15:21.685Z,0.40
2018-09-09T15:17:49.889Z,0.90
2018-09-09T15:20:18.054Z,0.40
2018-09-09T15:22:46.407Z,0.30
2018-09-09T15:25:14.623Z,0.30
2018-09-09T15:27:42.858Z,0.30
2018-09-09T15:30:11.009Z,0.70
2018-09-09T15:32:39.237Z,0.30
2018-09-09T15:35:07.505Z,0.30
2018-09-09T15:37:35.676Z,0.30
2018-09-09T15:40:03.971Z,0.50
2018-09-09T15:42:32.002Z,0.30
2018-09-09T15:45:00.266Z,0.30
2018-09-09T15:47:28.494Z,0.30
2018-09-09T15:49:56.700Z,0.50
2018-09-09T15:52:24.962Z,0.30
2018-09-09T15:54:53.194Z,1.13
2018-09-09T15:57:22.054Z,0.30
2018-09-09T15:59:50.330Z,0.37
2018-09-09T16:02:18.856Z,0.30
2018-09-09T16:04:47.605Z,0.30
2018-09-09T16:07:15.936Z,0.50
2018-09-09T16:09:44.127Z,0.30
2018-09-09T16:12:12.464Z,0.30
2018-09-09T16:14:40.776Z,0.30
2018-09-09T16:17:09.047Z,0.30
2018-09-09T16:19:37.352Z,0.50
2018-09-09T16:22:05.636Z,0.53
2018-09-09T16:24:33.856Z,0.30
2018-09-09T16:27:02.040Z,0.50
2018-09-09T16:29:30.212Z,0.40
2018-09-09T16:31:58.428Z,0.30
2018-09-09T16:34:26.611Z,0.30
2018-09-09T16:36:54.801Z,0.30
2018-09-09T16:39:23.020Z,0.30
2018-09-09T16:41:51.254Z,0.30
2018-09-09T16:44:19.448Z,0.30
2018-09-09T16:46:47.754Z,0.30
2018-09-09T16:49:16.001Z,0.40
2018-09-09T16:51:44.199Z,0.30
2018-09-09T16:54:12.364Z,0.53
2018-09-09T16:56:40.514Z,0.30
2018-09-09T16:59:08.841Z,0.30
2018-09-09T17:01:37.061Z,0.30
2018-09-09T17:04:05.443Z,0.40
2018-09-09T17:06:33.753Z,0.30
2018-09-09T17:09:01.916Z,0.67
2018-09-09T17:11:30.208Z,0.30
2018-09-09T17:13:58.379Z,0.30
2018-09-09T17:16:33.444Z,0.30
2018-09-09T17:19:01.675Z,0.30
2018-09-09T17:21:29.882Z,0.90
2018-09-09T17:23:58.888Z,0.30
2018-09-09T17:26:27.133Z,0.30
2018-09-09T17:28:55.385Z,0.30
2018-09-09T17:31:23.596Z,0.30
2018-09-09T17:33:51.701Z,0.30
2018-09-09T17:36:19.863Z,1.00
2018-09-09T17:38:48.079Z,0.30
2018-09-09T17:41:16.268Z,0.30
2018-09-09T17:43:44.402Z,0.53
2018-09-09T17:46:12.566Z,0.30
2018-09-09T17:48:40.791Z,0.30
2018-09-09T17:51:09.925Z,0.30
2018-09-09T17:53:38.226Z,0.53
2018-09-09T17:56:06.539Z,0.30
2018-09-09T17:58:34.852Z,0.90
2018-09-09T18:01:03.219Z,0.83
2018-09-09T18:03:31.507Z,0.30
2018-09-09T18:06:00.358Z,0.30
2018-09-09T18:08:28.543Z,0.40
2018-09-09T18:10:56.761Z,0.30
2018-09-09T18:13:24.953Z,0.70
2018-09-09T18:15:53.161Z,0.30
2018-09-09T18:18:21.374Z,0.50
2018-09-09T18:20:49.591Z,0.30
2018-09-09T18:23:17.897Z,0.30
2018-09-09T18:25:46.341Z,0.30
2018-09-09T18:28:14.697Z,0.30
2018-09-09T18:30:44.062Z,0.30
2018-09-09T18:33:12.569Z,0.30
2018-09-09T18:35:42.783Z,0.30
2018-09-09T18:38:11.550Z,0.30
2018-09-09T18:40:40.478Z,0.40
2018-09-09T18:43:09.614Z,0.30
2018-09-09T18:45:39.324Z,0.30
2018-09-09T18:48:09.163Z,0.30
2018-09-09T18:50:38.582Z,0.60
2018-09-09T18:53:10.106Z,0.70
2018-09-09T18:55:38.403Z,0.30
2018-09-09T18:58:06.874Z,0.67
2018-09-09T19:00:35.486Z,0.30
2018-09-09T19:03:03.855Z,0.30
2018-09-09T19:05:32.198Z,0.30
2018-09-09T19:08:01.570Z,0.40
2018-09-09T19:10:30.192Z,0.30
2018-09-09T19:12:58.504Z,0.30
2018-09-09T19:15:26.860Z,0.30
2018-09-09T19:17:55.148Z,0.30
2018-09-09T19:20:23.535Z,0.30
2018-09-09T19:22:51.825Z,0.50
2018-09-09T19:25:20.168Z,0.30
2018-09-09T19:27:48.574Z,0.30
2018-09-09T19:30:16.956Z,0.30
2018-09-09T19:32:45.301Z,0.30
2018-09-09T19:35:13.673Z,0.50
2018-09-09T19:37:41.969Z,0.40
2018-09-09T19:40:10.355Z,2.10
2018-09-09T19:42:38.812Z,0.30
2018-09-09T19:45:08.113Z,0.30
2018-09-09T19:47:36.528Z,0.30
2018-09-09T19:50:05.728Z,0.30
2018-09-09T19:52:34.664Z,0.40
2018-09-09T19:55:03.241Z,0.30
2018-09-09T19:57:31.721Z,0.30
2018-09-09T20:00:00.209Z,0.30
2018-09-09T20:02:28.940Z,0.30
2018-09-09T20:04:57.256Z,0.30
2018-09-09T20:07:25.601Z,0.37
2018-09-09T20:09:53.990Z,0.33
2018-09-09T20:12:22.374Z,0.30
2018-09-09T20:14:50.672Z,0.50
2018-09-09T20:17:18.930Z,0.30
2018-09-09T20:19:47.317Z,0.30
2018-09-09T20:22:15.640Z,0.30
2018-09-09T20:24:44.019Z,0.30
2018-09-09T20:27:12.254Z,0.50
2018-09-09T20:29:40.676Z,0.30
2018-09-09T20:32:09.106Z,0.40
2018-09-09T20:34:37.379Z,0.30
2018-09-09T20:37:05.765Z,0.30
2018-09-09T20:39:34.301Z,0.30
2018-09-09T20:42:02.704Z,0.30
2018-09-09T20:44:31.184Z,0.30
2018-09-09T20:46:59.584Z,0.30
2018-09-09T20:49:27.856Z,0.30
2018-09-09T20:51:56.162Z,0.30
2018-09-09T20:54:24.536Z,0.30
2018-09-09T20:56:53.273Z,0.30
2018-09-09T20:59:22.413Z,0.30
2018-09-09T21:01:50.753Z,0.30
2018-09-09T21:04:19.482Z,0.40
2018-09-09T21:06:47.912Z,0.30
2018-09-09T21:09:16.308Z,0.30
2018-09-09T21:11:44.715Z,0.30
2018-09-09T21:14:13.225Z,0.30
2018-09-09T21:16:41.697Z,0.30
2018-09-09T21:19:09.940Z,0.30
2018-09-09T21:21:38.178Z,0.70
2018-09-09T21:24:06.613Z,0.57
2018-09-09T21:26:35.045Z,0.30
2018-09-09T21:29:03.388Z,0.30
2018-09-09T21:31:31.707Z,0.30
2018-09-09T21:33:59.968Z,0.40
2018-09-09T21:36:28.569Z,0.40
2018-09-09T21:38:56.737Z,0.30
2018-09-09T21:41:24.912Z,0.30
2018-09-09T21:43:53.498Z,0.40
2018-09-09T21:46:21.872Z,0.40
2018-09-09T21:48:50.106Z,0.30
2018-09-09T21:51:18.773Z,0.30
2018-09-09T21:53:46.981Z,0.30
2018-09-09T21:56:15.239Z,0.30
2018-09-09T21:58:43.508Z,0.30
2018-09-09T22:01:17.457Z,0.30
2018-09-09T22:03:45.665Z,0.30
2018-09-09T22:06:13.983Z,0.33
2018-09-09T22:08:42.277Z,0.30
2018-09-09T22:11:10.591Z,0.30
2018-09-09T22:13:38.746Z,0.30
2018-09-09T22:16:07.062Z,0.30
2018-09-09T22:18:35.310Z,0.30
2018-09-09T22:21:03.648Z,0.30
2018-09-09T22:23:32.828Z,1.13
2018-09-09T22:26:00.972Z,0.30
2018-09-09T22:28:35.903Z,0.27
2018-09-09T22:31:04.125Z,0.30
2018-09-09T22:33:32.296Z,0.30
2018-09-09T22:36:00.498Z,0.30
2018-09-09T22:38:28.654Z,0.30
2018-09-09T22:40:56.784Z,0.30
2018-09-09T22:43:25.007Z,0.40
2018-09-09T22:45:58.903Z,0.30
2018-09-09T22:48:27.779Z,0.30
2018-09-09T22:50:56.012Z,0.30
2018-09-09T22:53:24.156Z,0.30
2018-09-09T22:55:52.358Z,0.30
2018-09-09T22:58:20.530Z,0.30
2018-09-09T23:00:48.772Z,0.30
2018-09-09T23:03:17.045Z,0.30
2018-09-09T23:05:45.381Z,0.30
2018-09-09T23:08:13.496Z,0.30
2018-09-09T23:10:41.659Z,0.30
2018-09-09T23:13:09.860Z,0.30
2018-09-09T23:15:38.027Z,0.30
2018-09-09T23:18:06.311Z,0.30
2018-09-09T23:20:34.454Z,0.30
2018-09-09T23:23:02.631Z,0.30
2018-09-09T23:25:30.779Z,0.30
2018-09-09T23:27:58.963Z,0.30
2018-09-09T23:30:27.131Z,0.30
2018-09-09T23:32:55.339Z,0.30
2018-09-09T23:35:23.605Z,0.57
2018-09-09T23:37:51.820Z,0.30
2018-09-09T23:40:20.003Z,0.50
2018-09-09T23:42:48.094Z,0.30
2018-09-09T23:45:16.363Z,0.30
2018-09-09T23:47:44.540Z,0.30
2018-09-09T23:50:12.745Z,0.50
2018-09-09T23:52:41.058Z,0.30
2018-09-09T23:55:09.268Z,0.30
2018-09-09T23:57:37.394Z,0.30
